Time;durP1;ratioP1;P1;durP2;ratioP2;P2;SDS_P1;SDS_P2;PMS_P1;PMS_P2;Temp;Humidity;BMP_temperature;BMP_pressure;BME280_temperature;BME280_humidity;BME280_pressure;Samples;Min_cycle;Max_cycle;Signal;HPM_P1;HPM_P2
2023/05/21 00:00:50;;;;;;;9.33;6.30;;;;;;;17.09;100.00;101417.13;2057329;28;20182;-68
2023/05/21 00:01:51;;;;;;;8.77;6.17;;;;;;;17.07;100.00;101413.22;2057444;28;20497;-68
2023/05/21 00:02:51;;;;;;;6.93;6.17;;;;;;;17.07;100.00;101408.38;2057534;28;20178;-67
2023/05/21 00:03:52;;;;;;;9.40;6.20;;;;;;;17.05;100.00;101405.25;2057562;28;20742;-67
2023/05/21 00:04:52;;;;;;;9.27;6.30;;;;;;;17.03;100.00;101409.75;2057309;28;20657;-68
2023/05/21 00:05:53;;;;;;;8.87;6.50;;;;;;;17.03;100.00;101412.56;2057510;28;20185;-67
2023/05/21 00:06:53;;;;;;;11.17;6.70;;;;;;;16.99;100.00;101409.09;2061700;28;20197;-68
2023/05/21 00:07:54;;;;;;;6.97;5.70;;;;;;;16.96;100.00;101405.19;2065413;28;20321;-68
2023/05/21 00:08:54;;;;;;;8.27;5.77;;;;;;;16.95;100.00;101412.03;2065246;28;20680;-68
2023/05/21 00:09:55;;;;;;;7.63;6.20;;;;;;;16.62;100.00;101378.56;2065030;28;20773;-67
2023/05/21 00:10:55;;;;;;;7.57;5.73;;;;;;;16.76;100.00;101387.19;2065184;28;20179;-68
2023/05/21 00:11:56;;;;;;;8.97;6.20;;;;;;;16.87;100.00;101407.16;2072702;28;20208;-68
2023/05/21 00:12:56;;;;;;;7.20;6.47;;;;;;;16.84;100.00;101408.88;2072819;28;20682;-67
2023/05/21 00:13:56;;;;;;;7.70;5.77;;;;;;;16.80;100.00;101411.00;2065424;28;20198;-67
2023/05/21 00:14:58;;;;;;;11.20;6.77;;;;;;;16.62;100.00;101386.94;2065296;28;20187;-68
2023/05/21 00:15:58;;;;;;;7.57;6.07;;;;;;;16.74;100.00;101410.03;2065557;28;20274;-68
2023/05/21 00:16:59;;;;;;;7.37;6.30;;;;;;;16.70;100.00;101391.81;2064977;28;20414;-68
2023/05/21 00:17:59;;;;;;;8.50;6.70;;;;;;;16.75;100.00;101410.84;2065106;28;20179;-67
2023/05/21 00:19:00;;;;;;;7.90;7.00;;;;;;;16.42;100.00;101359.25;2065341;28;20175;-68
2023/05/21 00:20:05;;;;;;;7.40;6.53;;;;;;;15.97;100.00;101284.16;2065385;28;20178;-68
2023/05/21 00:21:05;;;;;;;8.93;6.70;;;;;;;16.49;100.00;101370.22;2064939;28;20944;-67
2023/05/21 00:22:06;;;;;;;8.57;6.63;;;;;;;16.69;100.00;101404.22;2064551;28;20433;-67
2023/05/21 00:23:06;;;;;;;7.30;6.17;;;;;;;16.65;100.00;101401.56;2065268;28;20198;-67
2023/05/21 00:24:07;;;;;;;9.07;6.67;;;;;;;16.66;100.00;101405.91;2072822;28;20541;-67
2023/05/21 00:25:08;;;;;;;12.43;6.73;;;;;;;16.65;100.00;101398.75;2069754;28;20610;-67
2023/05/21 00:26:08;;;;;;;7.80;6.63;;;;;;;16.63;100.00;101402.50;2058980;28;20183;-67
2023/05/21 00:27:09;;;;;;;9.83;6.67;;;;;;;16.62;100.00;101398.13;2064831;28;20406;-67
2023/05/21 00:28:09;;;;;;;8.40;6.93;;;;;;;16.60;100.00;101401.38;2065617;28;20170;-67
2023/05/21 00:29:10;;;;;;;7.70;6.90;;;;;;;16.47;100.00;101383.09;2064563;28;20285;-67
2023/05/21 00:30:10;;;;;;;8.17;7.10;;;;;;;15.51;100.00;101233.88;2065250;28;20214;-67
2023/05/21 00:31:11;;;;;;;8.67;7.17;;;;;;;16.12;100.00;101329.94;2064695;28;20272;-67
2023/05/21 00:32:11;;;;;;;9.70;7.47;;;;;;;16.55;100.00;101391.53;2061196;28;20631;-67
2023/05/21 00:33:12;;;;;;;8.23;7.07;;;;;;;16.53;100.00;101388.44;2057064;28;20593;-68
2023/05/21 00:34:13;;;;;;;9.10;7.20;;;;;;;16.53;100.00;101388.44;2057198;28;20185;-67
2023/05/21 00:35:13;;;;;;;9.33;7.30;;;;;;;16.54;100.00;101386.41;2057223;28;20964;-68
2023/05/21 00:36:14;;;;;;;8.87;7.03;;;;;;;16.52;100.00;101386.88;2057551;28;20246;-67
2023/05/21 00:37:15;;;;;;;9.60;6.80;;;;;;;16.50;100.00;101386.53;2056864;28;20245;-67
2023/05/21 00:38:17;;;;;;;8.30;7.10;;;;;;;16.48;100.00;101390.25;2057177;28;20213;-67
2023/05/21 00:39:17;;;;;;;7.97;7.17;;;;;;;16.43;100.00;101389.59;2056628;28;20687;-68
2023/05/21 00:40:18;;;;;;;10.60;7.20;;;;;;;15.98;100.00;101321.28;2056834;28;20799;-67
2023/05/21 00:41:21;;;;;;;9.17;6.77;;;;;;;16.42;100.00;101380.88;2057113;28;20206;-67
2023/05/21 00:42:26;;;;;;;9.40;7.07;;;;;;;16.34;100.00;101381.09;2057351;28;20186;-68
2023/05/21 00:43:26;;;;;;;10.70;6.87;;;;;;;16.31;100.00;101386.81;2056316;28;20530;-67
2023/05/21 00:44:32;;;;;;;10.47;7.07;;;;;;;16.32;100.00;101388.38;2057714;28;20426;-67
2023/05/21 00:45:35;;;;;;;9.30;7.13;;;;;;;16.29;100.00;101386.50;2057816;28;20173;-68
2023/05/21 00:46:36;;;;;;;9.03;7.23;;;;;;;16.29;100.00;101378.88;2065354;28;20610;-67
2023/05/21 00:47:37;;;;;;;8.90;6.70;;;;;;;16.28;100.00;101382.91;2056872;28;20429;-67
2023/05/21 00:48:38;;;;;;;7.80;6.70;;;;;;;15.55;100.00;101271.66;2057171;28;20284;-67
2023/05/21 00:49:39;;;;;;;9.60;6.73;;;;;;;16.19;100.00;101387.66;2062425;28;20459;-68
2023/05/21 00:50:40;;;;;;;12.30;6.73;;;;;;;14.93;100.00;101193.53;2065124;28;20225;-68
2023/05/21 00:51:41;;;;;;;8.27;6.67;;;;;;;16.16;100.00;101386.53;2061262;28;21017;-68
2023/05/21 00:52:42;;;;;;;8.97;6.60;;;;;;;15.70;100.00;101313.84;2060011;28;20201;-68
2023/05/21 00:53:44;;;;;;;8.53;6.77;;;;;;;16.03;100.00;101359.84;2064543;28;20567;-68
2023/05/21 00:54:47;;;;;;;8.30;6.57;;;;;;;16.14;100.00;101380.59;2064927;28;20424;-67
2023/05/21 00:55:49;;;;;;;11.63;6.80;;;;;;;16.18;100.00;101388.88;2065304;28;20420;-68
2023/05/21 00:56:50;;;;;;;8.87;6.67;;;;;;;16.11;100.00;101378.72;2064517;28;20828;-67
2023/05/21 00:57:51;;;;;;;9.03;6.67;;;;;;;15.54;100.00;101291.66;2064204;28;20480;-67
2023/05/21 00:58:54;;;;;;;11.57;7.00;;;;;;;16.15;100.00;101386.97;2063101;28;20942;-68
2023/05/21 00:59:55;;;;;;;10.27;6.50;;;;;;;16.12;100.00;101380.28;2064448;28;20183;-67
2023/05/21 01:00:55;;;;;;;10.77;7.10;;;;;;;16.09;100.00;101383.19;2060877;28;20453;-67
2023/05/21 01:01:56;;;;;;;9.40;7.10;;;;;;;15.89;100.00;101352.69;2059209;28;20229;-67
2023/05/21 01:02:56;;;;;;;8.37;7.30;;;;;;;16.07;100.00;101380.06;2064342;28;20175;-67
2023/05/21 01:04:00;;;;;;;8.67;7.50;;;;;;;16.07;100.00;101389.22;2064456;28;20256;-67
2023/05/21 01:05:03;;;;;;;10.47;7.03;;;;;;;15.98;100.00;101377.19;2056770;28;20175;-68
2023/05/21 01:06:04;;;;;;;9.83;7.60;;;;;;;15.94;100.00;101374.50;2057267;28;20432;-67
2023/05/21 01:07:05;;;;;;;10.97;7.83;;;;;;;16.02;100.00;101387.00;2056583;28;20957;-67
2023/05/21 01:08:06;;;;;;;8.53;7.10;;;;;;;16.01;100.00;101385.44;2057053;28;20811;-67
2023/05/21 01:09:08;;;;;;;8.77;7.57;;;;;;;15.37;100.00;101285.41;2056243;28;20206;-67
2023/05/21 01:10:10;;;;;;;8.73;7.57;;;;;;;15.99;100.00;101385.09;2056935;28;20481;-67
2023/05/21 01:11:10;;;;;;;9.63;7.43;;;;;;;15.79;100.00;101367.06;2056751;28;20434;-67
2023/05/21 01:12:12;;;;;;;10.50;7.60;;;;;;;15.89;100.00;101385.47;2056961;28;20425;-67
2023/05/21 01:13:13;;;;;;;9.27;6.90;;;;;;;15.88;100.00;101383.91;2056816;28;20208;-68
2023/05/21 01:14:16;;;;;;;14.00;7.80;;;;;;;15.87;100.00;101382.34;2056878;28;20459;-67
2023/05/21 01:15:17;;;;;;;12.87;7.53;;;;;;;15.17;100.00;101270.88;2056403;28;20441;-67
2023/05/21 01:16:17;;;;;;;12.87;7.17;;;;;;;15.84;100.00;101375.63;2056282;28;20488;-67
2023/05/21 01:17:19;;;;;;;12.13;6.70;;;;;;;15.82;100.00;101382.91;2057251;28;20199;-68
2023/05/21 01:18:20;;;;;;;6.50;5.73;;;;;;;15.84;100.00;101386.81;2065008;28;20178;-68
2023/05/21 01:19:22;;;;;;;8.60;6.87;;;;;;;15.22;100.00;101301.03;2059896;28;20954;-68
2023/05/21 01:20:23;;;;;;;8.23;6.03;;;;;;;15.81;100.00;101382.13;2056980;28;20521;-67
2023/05/21 01:21:24;;;;;;;7.97;6.53;;;;;;;15.81;100.00;101373.75;2056657;28;20460;-67
2023/05/21 01:22:27;;;;;;;8.53;6.73;;;;;;;15.80;100.00;101379.78;2056793;28;20179;-68
2023/05/21 01:23:28;;;;;;;8.30;6.70;;;;;;;15.77;100.00;101375.88;2056702;28;20428;-67
2023/05/21 01:24:29;;;;;;;8.70;6.87;;;;;;;15.73;100.00;101375.22;2057188;28;20618;-67
2023/05/21 01:25:30;;;;;;;7.90;7.03;;;;;;;15.73;100.00;101377.25;2056764;28;20199;-67
2023/05/21 01:26:32;;;;;;;9.93;7.17;;;;;;;15.71;100.00;101374.09;2056898;28;20198;-67
2023/05/21 01:27:32;;;;;;;8.00;7.20;;;;;;;14.92;100.00;101253.38;2056416;28;20216;-67
2023/05/21 01:28:33;;;;;;;7.90;7.03;;;;;;;15.62;100.00;101366.41;2056778;28;20442;-67
2023/05/21 01:29:33;;;;;;;11.10;7.27;;;;;;;15.65;100.00;101373.09;2056121;28;20198;-67
2023/05/21 01:30:35;;;;;;;8.37;7.10;;;;;;;15.64;100.00;101377.13;2056842;28;20317;-67
2023/05/21 01:32:09;;;;;;;8.77;7.17;;;;;;;15.48;100.00;101375.22;2056504;28;20734;-67
2023/05/21 01:33:23;;;;;;;10.03;6.40;;;;;;;14.92;100.00;101286.88;2056265;28;20936;-67
2023/05/21 01:34:36;;;;;;;9.73;6.30;;;;;;;15.42;100.00;101377.03;2056809;28;20449;-67
2023/05/21 01:35:43;;;;;;;7.87;6.27;;;;;;;15.37;100.00;101363.63;2056634;28;20442;-67
2023/05/21 01:36:53;;;;;;;7.07;6.07;;;;;;;15.36;100.00;101367.66;2056782;28;20454;-67
2023/05/21 01:38:14;;;;;;;7.17;6.13;;;;;;;15.33;100.00;101367.75;2061929;28;20954;-67
2023/05/21 01:39:21;;;;;;;7.23;5.87;;;;;;;15.33;100.00;101368.56;2064208;28;20960;-67
2023/05/21 01:40:24;;;;;;;7.37;5.57;;;;;;;15.30;100.00;101365.81;2063870;28;20550;-67
2023/05/21 01:41:28;;;;;;;9.03;7.20;;;;;;;15.04;100.00;101339.13;2064071;28;20488;-67
2023/05/21 01:42:30;;;;;;;8.13;6.13;;;;;;;15.27;100.00;101361.91;2059356;28;20807;-67
2023/05/21 01:43:33;;;;;;;7.47;6.30;;;;;;;15.28;100.00;101365.50;2056578;28;20450;-67
2023/05/21 01:44:35;;;;;;;8.70;6.03;;;;;;;15.28;100.00;101366.28;2056713;28;20443;-67
2023/05/21 01:45:38;;;;;;;8.07;6.60;;;;;;;15.29;100.00;101373.44;2056578;28;20458;-67
2023/05/21 01:46:39;;;;;;;10.53;6.83;;;;;;;14.98;100.00;101324.94;2056766;28;20434;-67
2023/05/21 01:47:40;;;;;;;8.37;6.80;;;;;;;14.43;100.00;101236.16;2056191;28;20942;-67
2023/05/21 01:48:42;;;;;;;11.93;7.50;;;;;;;15.24;100.00;101368.41;2056884;28;20659;-67
2023/05/21 01:49:43;;;;;;;7.93;6.53;;;;;;;15.25;100.00;101383.13;2060536;28;20435;-67
2023/05/21 01:50:44;;;;;;;9.13;6.40;;;;;;;14.42;100.00;101256.91;2064446;28;20468;-67
2023/05/21 01:51:45;;;;;;;13.73;6.67;;;;;;;15.15;100.00;101378.66;2060031;28;20182;-67
2023/05/21 01:52:52;;;;;;;10.23;6.00;;;;;;;13.96;100.00;101196.09;2056551;28;20446;-67
2023/05/21 01:53:52;;;;;;;7.47;6.53;;;;;;;15.13;100.00;101381.13;2059117;28;20785;-67
2023/05/21 01:54:53;;;;;;;10.57;6.50;;;;;;;15.11;100.00;101375.97;2064453;28;20508;-67
2023/05/21 01:55:54;;;;;;;8.73;6.70;;;;;;;15.04;100.00;101370.63;2064483;28;20603;-67
2023/05/21 01:56:54;;;;;;;10.70;6.23;;;;;;;15.02;100.00;101370.25;2064751;28;20180;-67
2023/05/21 01:57:55;;;;;;;7.63;6.10;;;;;;;15.06;100.00;101376.53;2056483;28;20191;-67
2023/05/21 01:58:58;;;;;;;8.80;6.40;;;;;;;15.07;100.00;101375.28;2056518;28;20728;-67
2023/05/21 01:59:59;;;;;;;11.30;6.83;;;;;;;14.81;100.00;101351.38;2062080;28;20441;-67
2023/05/21 02:01:01;;;;;;;10.10;6.50;;;;;;;14.94;100.00;101354.97;2064469;28;20456;-67
2023/05/21 02:02:02;;;;;;;14.07;6.53;;;;;;;14.62;100.00;101292.97;2060498;28;20477;-67
2023/05/21 02:03:02;;;;;;;9.00;6.80;;;;;;;14.09;100.00;101205.28;2056516;28;20457;-67
2023/05/21 02:04:03;;;;;;;8.20;6.70;;;;;;;14.81;100.00;101328.28;2056566;28;20177;-67
2023/05/21 02:05:03;;;;;;;8.10;6.67;;;;;;;15.12;100.00;101379.56;2056229;28;20193;-67
2023/05/21 02:06:04;;;;;;;10.23;6.90;;;;;;;15.14;100.00;101377.09;2056775;28;20190;-67
2023/05/21 02:07:05;;;;;;;10.47;6.77;;;;;;;15.11;100.00;101378.75;2056068;28;20637;-67
2023/05/21 02:08:08;;;;;;;11.07;6.93;;;;;;;15.11;100.00;101380.78;2056701;28;20655;-67
2023/05/21 02:09:09;;;;;;;11.53;7.33;;;;;;;15.10;100.00;101376.41;2055837;28;20446;-67
2023/05/21 02:10:10;;;;;;;8.53;7.47;;;;;;;15.09;100.00;101378.44;2056547;28;20566;-67
2023/05/21 02:11:10;;;;;;;8.50;7.07;;;;;;;15.05;100.00;101371.38;2056298;28;20194;-67
2023/05/21 02:12:11;;;;;;;8.77;6.87;;;;;;;15.11;100.00;101387.16;2056475;28;20417;-67
2023/05/21 02:13:11;;;;;;;10.83;7.10;;;;;;;14.86;100.00;101352.84;2056313;28;20181;-67
2023/05/21 02:14:12;;;;;;;9.50;6.97;;;;;;;15.08;100.00;101384.47;2056345;28;20177;-67
2023/05/21 02:15:13;;;;;;;9.27;7.20;;;;;;;15.08;100.00;101385.25;2064325;28;20726;-67
2023/05/21 02:16:14;;;;;;;9.43;7.30;;;;;;;14.98;100.00;101383.56;2064503;28;20899;-67
2023/05/21 02:17:16;;;;;;;13.33;7.23;;;;;;;14.24;100.00;101261.44;2064052;28;20545;-67
2023/05/21 02:18:17;;;;;;;14.30;7.30;;;;;;;15.09;100.00;101386.03;2064444;28;20438;-67
2023/05/21 02:19:17;;;;;;;8.77;6.77;;;;;;;15.04;100.00;101398.53;2059704;28;20523;-67
2023/05/21 02:20:18;;;;;;;13.17;6.30;;;;;;;14.95;100.00;101387.22;2059595;28;20490;-67
2023/05/21 02:21:19;;;;;;;11.27;6.40;;;;;;;14.97;100.00;101392.38;2064364;28;20185;-67
2023/05/21 02:22:19;;;;;;;6.73;5.97;;;;;;;14.92;100.00;101390.94;2063705;28;20452;-67
2023/05/21 02:23:20;;;;;;;10.57;6.43;;;;;;;14.45;100.00;101320.16;2056634;28;20243;-67
2023/05/21 02:24:21;;;;;;;8.33;6.20;;;;;;;14.86;100.00;101401.03;2056452;28;20200;-67
2023/05/21 02:25:22;;;;;;;12.60;6.67;;;;;;;13.93;100.00;101255.50;2063055;28;20195;-67
2023/05/21 02:26:22;;;;;;;17.27;7.30;;;;;;;14.73;100.00;101375.13;2064441;28;20452;-67
2023/05/21 02:27:22;;;;;;;16.37;7.10;;;;;;;14.53;100.00;101357.78;2059470;28;20248;-67
2023/05/21 02:28:23;;;;;;;14.67;7.23;;;;;;;14.76;100.00;101390.22;2056443;28;20199;-67
2023/05/21 02:29:23;;;;;;;15.17;7.03;;;;;;;14.76;100.00;101388.19;2057875;28;20190;-67
2023/05/21 02:30:24;;;;;;;10.73;6.80;;;;;;;14.75;100.00;101392.22;2063324;28;20292;-67
2023/05/21 02:31:24;;;;;;;10.43;7.30;;;;;;;14.73;100.00;101388.28;2056300;28;20193;-67
2023/05/21 02:32:25;;;;;;;10.13;6.80;;;;;;;14.73;100.00;101408.63;2064311;28;20188;-67
2023/05/21 02:33:25;;;;;;;9.33;7.03;;;;;;;14.75;100.00;101394.22;2057514;28;20201;-67
2023/05/21 02:34:25;;;;;;;13.10;6.83;;;;;;;14.71;100.00;101388.72;2061836;28;20193;-67
2023/05/21 02:35:26;;;;;;;11.10;7.07;;;;;;;14.71;100.00;101396.34;2064339;28;20642;-67
2023/05/21 02:36:27;;;;;;;14.53;6.97;;;;;;;14.68;100.00;101391.63;2064377;28;20571;-67
2023/05/21 02:37:28;;;;;;;14.17;7.03;;;;;;;14.61;100.00;101387.03;2063815;28;20273;-67
2023/05/21 02:38:28;;;;;;;14.50;6.80;;;;;;;14.56;100.00;101397.97;2064245;28;20946;-67
2023/05/21 02:39:29;;;;;;;19.73;7.57;;;;;;;14.29;100.00;101362.03;2063674;28;20288;-67
2023/05/21 02:40:29;;;;;;;11.50;7.87;;;;;;;14.45;100.00;101395.44;2064363;28;20247;-67
2023/05/21 02:41:30;;;;;;;11.67;7.47;;;;;;;14.47;100.00;101389.44;2064310;28;20259;-67
2023/05/21 02:42:31;;;;;;;11.13;7.13;;;;;;;14.48;100.00;101396.56;2064392;28;20182;-67
2023/05/21 02:43:32;;;;;;;9.70;7.87;;;;;;;14.47;100.00;101386.66;2064248;28;20224;-67
2023/05/21 02:44:32;;;;;;;11.57;7.57;;;;;;;14.46;100.00;101387.88;2063814;28;20451;-67
2023/05/21 02:45:32;;;;;;;10.23;7.10;;;;;;;14.46;100.00;101388.66;2063985;28;20260;-67
2023/05/21 02:46:33;;;;;;;13.57;8.13;;;;;;;14.43;100.00;101383.97;2064297;28;20635;-67
2023/05/21 02:47:33;;;;;;;9.93;7.90;;;;;;;14.43;100.00;101381.16;2063700;28;20216;-67
2023/05/21 02:48:34;;;;;;;12.57;7.47;;;;;;;14.42;100.00;101387.19;2064459;28;20190;-67
2023/05/21 02:49:34;;;;;;;10.20;7.10;;;;;;;14.41;100.00;101386.41;2063651;28;20204;-67
2023/05/21 02:50:35;;;;;;;9.00;7.57;;;;;;;14.41;100.00;101385.63;2064351;28;20754;-67
2023/05/21 02:51:35;;;;;;;8.17;6.80;;;;;;;14.43;100.00;101383.97;2064194;28;20272;-67
2023/05/21 02:52:36;;;;;;;7.30;6.60;;;;;;;14.41;100.00;101392.00;2064246;28;20196;-67
2023/05/21 02:53:36;;;;;;;7.90;6.70;;;;;;;13.59;100.00;101262.81;2064127;28;20528;-67
2023/05/21 02:54:36;;;;;;;10.50;7.30;;;;;;;13.22;100.00;101197.31;2064092;28;20198;-67
2023/05/21 02:55:37;;;;;;;8.20;7.03;;;;;;;14.06;100.00;101328.81;2064011;28;20323;-67
2023/05/21 02:56:37;;;;;;;11.17;7.20;;;;;;;14.43;100.00;101392.31;2064538;28;20186;-67
2023/05/21 02:57:38;;;;;;;11.50;8.17;;;;;;;14.42;100.00;101389.97;2056367;28;20214;-67
2023/05/21 02:58:38;;;;;;;12.80;7.00;;;;;;;14.44;100.00;101395.91;2062702;28;20299;-67
2023/05/21 02:59:38;;;;;;;9.07;7.40;;;;;;;14.48;100.00;101391.00;2063714;28;20251;-67
2023/05/21 03:00:39;;;;;;;9.13;6.60;;;;;;;14.48;100.00;101391.00;2060132;28;20187;-67
2023/05/21 03:01:40;;;;;;;10.30;7.10;;;;;;;14.50;100.00;101391.34;2055974;28;20201;-67
2023/05/21 03:02:41;;;;;;;8.77;6.70;;;;;;;14.52;100.00;101391.69;2056336;28;20190;-67
2023/05/21 03:03:41;;;;;;;12.20;7.47;;;;;;;13.69;100.00;101262.50;2056003;28;20180;-67
2023/05/21 03:04:45;;;;;;;10.57;7.67;;;;;;;14.56;100.00;101395.94;2056442;28;20465;-67
2023/05/21 03:05:45;;;;;;;9.70;7.13;;;;;;;14.59;100.00;101400.63;2056485;28;20206;-67
2023/05/21 03:06:46;;;;;;;12.80;7.20;;;;;;;13.85;100.00;101311.84;2063468;28;20447;-67
2023/05/21 03:07:46;;;;;;;10.80;7.43;;;;;;;14.60;100.00;101399.41;2063746;28;20644;-67
2023/05/21 03:08:47;;;;;;;14.33;7.60;;;;;;;14.60;100.00;101390.28;2064202;28;20222;-67
2023/05/21 03:09:47;;;;;;;9.73;7.00;;;;;;;14.59;100.00;101399.84;2063440;28;20189;-67
2023/05/21 03:10:48;;;;;;;10.27;7.87;;;;;;;14.59;100.00;101395.06;2063937;28;20232;-67
2023/05/21 03:11:49;;;;;;;11.23;7.47;;;;;;;14.60;100.00;101396.63;2064245;28;20209;-67
2023/05/21 03:12:49;;;;;;;13.30;6.77;;;;;;;14.61;100.00;101398.19;2063949;28;20180;-67
2023/05/21 03:13:50;;;;;;;10.97;7.30;;;;;;;14.63;100.00;101400.53;2064401;28;20448;-67
2023/05/21 03:14:50;;;;;;;9.50;7.23;;;;;;;14.58;100.00;101406.66;2064103;28;20233;-67
2023/05/21 03:15:55;;;;;;;13.43;6.43;;;;;;;14.08;100.00;101325.56;2064196;28;20730;-67
2023/05/21 03:16:55;;;;;;;9.93;6.70;;;;;;;14.53;100.00;101396.03;2064066;28;20269;-67
2023/05/21 03:17:56;;;;;;;11.50;7.23;;;;;;;13.86;100.00;101303.06;2063915;28;20548;-67
2023/05/21 03:18:56;;;;;;;12.97;6.80;;;;;;;14.44;100.00;101402.25;2060659;28;20191;-67
2023/05/21 03:19:56;;;;;;;11.60;6.53;;;;;;;14.39;100.00;101399.22;2058011;28;20178;-67
2023/05/21 03:20:57;;;;;;;16.93;7.10;;;;;;;14.39;100.00;101393.66;2062924;28;20277;-67
2023/05/21 03:21:58;;;;;;;14.50;7.20;;;;;;;14.41;100.00;101396.78;2056070;28;20183;-67
2023/05/21 03:22:59;;;;;;;14.57;7.80;;;;;;;14.39;100.00;101394.41;2056199;28;20426;-67
2023/05/21 03:24:00;;;;;;;21.60;8.50;;;;;;;14.40;100.00;101392.44;2063286;28;20182;-67
2023/05/21 03:25:01;;;;;;;27.97;9.00;;;;;;;14.41;100.00;101389.22;2064086;28;20524;-67
2023/05/21 03:26:01;;;;;;;24.33;10.10;;;;;;;14.42;100.00;101385.19;2066487;28;20503;-67
2023/05/21 03:27:04;;;;;;;20.00;8.93;;;;;;;13.61;100.00;101263.13;2069652;28;20709;-67
2023/05/21 03:28:05;;;;;;;18.50;9.00;;;;;;;14.43;100.00;101388.75;2069132;28;20205;-67
2023/05/21 03:29:06;;;;;;;23.33;9.50;;;;;;;14.43;100.00;101391.53;2061360;28;20520;-67
2023/05/21 03:30:06;;;;;;;17.63;8.53;;;;;;;14.02;100.00;101319.75;2065830;28;20445;-67
2023/05/21 03:31:07;;;;;;;22.27;9.17;;;;;;;14.47;100.00;101384.66;2056120;28;20244;-67
2023/05/21 03:32:07;;;;;;;27.90;9.53;;;;;;;14.50;100.00;101389.34;2056142;28;20629;-67
2023/05/21 03:33:08;;;;;;;32.30;9.50;;;;;;;14.52;100.00;101392.47;2062966;28;20203;-67
2023/05/21 03:34:08;;;;;;;22.80;8.47;;;;;;;14.53;100.00;101387.66;2064076;28;20204;-67
2023/05/21 03:35:09;;;;;;;24.83;9.03;;;;;;;14.53;100.00;101391.25;2059456;28;20194;-67
2023/05/21 03:36:09;;;;;;;19.17;7.93;;;;;;;14.55;100.00;101396.41;2059675;28;20192;-67
2023/05/21 03:37:10;;;;;;;18.80;8.23;;;;;;;14.53;100.00;101388.47;2063551;28;20217;-67
2023/05/21 03:38:10;;;;;;;15.83;8.33;;;;;;;14.50;100.00;101394.16;2062719;28;20197;-67
2023/05/21 03:39:11;;;;;;;29.70;9.20;;;;;;;14.52;100.00;101394.47;2055546;28;20175;-67
2023/05/21 03:40:12;;;;;;;25.00;8.27;;;;;;;14.38;100.00;101392.88;2064186;28;20205;-67
2023/05/21 03:41:12;;;;;;;20.80;7.80;;;;;;;14.42;100.00;101398.34;2063925;28;20333;-67
2023/05/21 03:42:13;;;;;;;14.70;7.63;;;;;;;14.45;100.00;101395.44;2064287;28;20225;-67
2023/05/21 03:43:13;;;;;;;12.93;7.30;;;;;;;14.48;100.00;101402.16;2063757;28;20193;-67
2023/05/21 03:44:13;;;;;;;11.53;8.60;;;;;;;14.44;100.00;101399.47;2064049;28;20201;-67
2023/05/21 03:45:15;;;;;;;17.77;10.50;;;;;;;14.43;100.00;101399.91;2063961;28;20214;-67
2023/05/21 03:46:15;;;;;;;14.60;13.03;;;;;;;14.46;100.00;101397.03;2064051;28;20907;-67
2023/05/21 03:47:16;;;;;;;17.97;16.07;;;;;;;14.49;100.00;101398.94;2063616;28;20182;-67
2023/05/21 03:48:17;;;;;;;17.27;15.47;;;;;;;14.00;100.00;101319.41;2064342;28;20191;-67
2023/05/21 03:49:17;;;;;;;15.57;13.73;;;;;;;14.50;100.00;101400.50;2063539;28;20205;-67
2023/05/21 03:50:17;;;;;;;14.27;12.87;;;;;;;14.54;100.00;101401.19;2063937;28;20211;-67
2023/05/21 03:51:19;;;;;;;14.13;11.50;;;;;;;13.58;100.00;101248.09;2063908;28;20381;-67
2023/05/21 03:52:19;;;;;;;12.90;8.97;;;;;;;14.58;100.00;101401.06;2064048;28;20201;-67
2023/05/21 03:53:20;;;;;;;14.87;9.27;;;;;;;14.17;100.00;101337.66;2063986;28;20505;-67
2023/05/21 03:54:20;;;;;;;12.97;8.27;;;;;;;14.54;100.00;101398.38;2064126;28;20695;-67
2023/05/21 03:55:21;;;;;;;14.50;7.90;;;;;;;14.57;100.00;101397.53;2063903;28;20189;-67
2023/05/21 03:56:21;;;;;;;11.37;7.67;;;;;;;14.59;100.00;101402.63;2065354;28;20644;-67
2023/05/21 03:57:22;;;;;;;14.53;7.67;;;;;;;14.60;100.00;101402.19;2057249;28;20194;-67
2023/05/21 03:58:23;;;;;;;9.57;7.10;;;;;;;14.44;100.00;101379.19;2057504;28;20214;-67
2023/05/21 03:59:23;;;;;;;9.90;7.10;;;;;;;14.24;100.00;101354.22;2056926;28;20297;-67
2023/05/21 04:00:24;;;;;;;10.57;7.17;;;;;;;14.64;100.00;101408.47;2062242;28;20460;-67
2023/05/21 04:01:24;;;;;;;11.03;7.00;;;;;;;14.72;100.00;101403.47;2065270;28;20291;-67
2023/05/21 04:02:26;;;;;;;9.70;6.63;;;;;;;14.76;100.00;101398.59;2065615;28;20252;-67
2023/05/21 04:03:26;;;;;;;13.20;7.07;;;;;;;14.78;100.00;101404.50;2065308;28;20260;-67
2023/05/21 04:04:28;;;;;;;9.53;7.07;;;;;;;14.80;100.00;101404.84;2065422;28;20417;-67
2023/05/21 04:05:28;;;;;;;14.80;7.07;;;;;;;14.75;100.00;101388.66;2065855;28;20266;-67
2023/05/21 04:06:29;;;;;;;8.83;7.73;;;;;;;14.88;100.00;101414.56;2064781;28;20449;-67
2023/05/21 04:07:29;;;;;;;13.30;8.13;;;;;;;14.95;100.00;101405.97;2064272;28;20191;-67
2023/05/21 04:08:30;;;;;;;15.27;8.97;;;;;;;14.98;100.00;101403.09;2065667;28;20197;-67
2023/05/21 04:09:30;;;;;;;12.27;9.17;;;;;;;15.02;100.00;101400.97;2065418;28;20617;-67
2023/05/21 04:10:31;;;;;;;12.47;9.20;;;;;;;15.05;100.00;101411.25;2065443;28;20591;-67
2023/05/21 04:11:31;;;;;;;10.90;9.00;;;;;;;15.13;100.00;101403.44;2065284;28;20605;-67
2023/05/21 04:12:31;;;;;;;11.03;9.10;;;;;;;14.49;100.00;101294.97;2064772;28;20625;-67
2023/05/21 04:13:32;;;;;;;11.40;9.50;;;;;;;14.69;100.00;101327.03;2057306;28;20582;-67
2023/05/21 04:14:33;;;;;;;11.53;9.07;;;;;;;15.25;100.00;101411.06;2065256;28;20552;-67
2023/05/21 04:15:34;;;;;;;10.20;9.03;;;;;;;15.31;100.00;101409.28;2065390;28;20284;-67
2023/05/21 04:16:37;;;;;;;12.43;9.53;;;;;;;15.30;100.00;101407.72;2059796;28;20198;-67
2023/05/21 04:17:38;;;;;;;13.00;9.23;;;;;;;15.33;100.00;101412.44;2061731;28;20452;-67
2023/05/21 04:18:43;;;;;;;13.00;8.83;;;;;;;15.37;100.00;101430.66;2065367;28;20534;-67
2023/05/21 04:19:43;;;;;;;14.70;9.20;;;;;;;15.42;100.00;101404.19;2061466;28;21010;-67
2023/05/21 04:20:44;;;;;;;11.20;8.77;;;;;;;15.41;100.00;101400.59;2057259;28;20864;-67
2023/05/21 04:21:44;;;;;;;14.50;9.20;;;;;;;15.42;100.00;101385.41;2057170;28;20294;-67
2023/05/21 04:22:45;;;;;;;12.20;8.93;;;;;;;15.58;100.00;101402.03;2057515;28;20228;-67
2023/05/21 04:23:45;;;;;;;11.27;8.73;;;;;;;15.65;100.00;101407.41;2057277;28;20246;-67
2023/05/21 04:24:45;;;;;;;16.87;9.07;;;;;;;15.69;100.00;101407.31;2056629;28;20760;-67
2023/05/21 04:25:49;;;;;;;10.80;8.43;;;;;;;15.77;100.00;101403.81;2056574;28;20745;-67
2023/05/21 04:26:49;;;;;;;11.23;8.87;;;;;;;15.85;100.00;101429.53;2057138;28;20660;-67
2023/05/21 04:27:50;;;;;;;12.80;8.67;;;;;;;15.76;100.00;101379.13;2056899;28;20893;-67
2023/05/21 04:28:52;;;;;;;11.90;8.20;;;;;;;15.93;100.00;101398.09;2057100;28;20209;-67
2023/05/21 04:29:53;;;;;;;11.57;7.70;;;;;;;16.05;100.00;101410.50;2056803;28;20199;-67
2023/05/21 04:30:56;;;;;;;15.57;8.80;;;;;;;16.12;100.00;101410.25;2057097;28;20421;-67
2023/05/21 04:31:57;;;;;;;14.17;8.70;;;;;;;16.16;100.00;101403.31;2057499;28;20176;-67
2023/05/21 04:32:58;;;;;;;12.10;8.33;;;;;;;16.15;100.00;101400.97;2057149;28;20544;-67
2023/05/21 04:33:59;;;;;;;15.23;9.33;;;;;;;15.80;100.00;101346.25;2057072;28;20245;-67
2023/05/21 04:35:00;;;;;;;9.87;8.73;;;;;;;16.16;100.00;101394.91;2057110;28;20452;-67
2023/05/21 04:36:00;;;;;;;12.27;8.73;;;;;;;15.76;100.00;101346.38;2057302;28;20185;-67
2023/05/21 04:37:01;;;;;;;12.67;8.47;;;;;;;16.26;100.00;101393.78;2056789;28;20197;-67
2023/05/21 04:38:04;;;;;;;12.93;9.33;;;;;;;16.28;100.00;101396.88;2057178;28;20706;-67
2023/05/21 04:39:06;;;;;;;12.27;8.70;;;;;;;16.31;100.00;101396.00;2056672;28;20238;-67
2023/05/21 04:40:09;;;;;;;13.27;8.33;;;;;;;16.35;100.00;101398.66;2057025;28;20422;-67